BIVI weather

Vík Airport
Vík, Southern Region, Iceland

Public forecast

Using degrees Celsius for public forecast. Weather courtesy of forecast.io.

Closest aviation weather report (METAR) to Vík Airport

Report is more than 6 hours old.

Closest report is Vestmannaeyjar Airport, 37.4 nm (69.2 km) W. Retrieved 2019/10/18 18:00 UTC (14 hours ago):

BIVM 181800Z VRB03KT 9999 SCT010 BKN025 06/03 Q1018

Closest aviation forecast (TAF) to Vík Airport

Closest forecast is Reykjavik Airport, 91.5 nm (169.4 km) WNW. Retrieved 2019/10/19 09:27 UTC (0 seconds ago):

TAF BIRK 190720Z 1909/2009 12005KT 9999 SCT020 BKN032 TX06/1915Z TN02/2003Z BECMG 1909/1911 25010KT BECMG 2007/2009 18010KT